createdAt,value
2019-04-27T00:06:42.343Z,10
2019-04-27T00:21:52.943Z,10
2019-04-27T00:37:06.863Z,10
2019-04-27T00:52:20.957Z,10
2019-04-27T01:07:33.366Z,10
2019-04-27T01:22:49.297Z,9.9
2019-04-27T01:38:03.310Z,10
2019-04-27T01:53:19.014Z,10
2019-04-27T02:08:22.674Z,10.1
2019-04-27T02:23:46.013Z,10.1
2019-04-27T02:39:00.681Z,10.1
2019-04-27T02:54:14.245Z,10
2019-04-27T03:09:30.378Z,10.1
2019-04-27T03:24:41.186Z,10.1
2019-04-27T03:39:56.861Z,10.2
2019-04-27T03:55:11.084Z,10.2
2019-04-27T04:10:25.363Z,10.2
2019-04-27T04:25:33.036Z,10.3
2019-04-27T04:40:53.967Z,10.4
2019-04-27T04:56:08.557Z,10.4
2019-04-27T05:11:22.621Z,10.4
2019-04-27T05:26:37.248Z,10.5
2019-04-27T05:41:50.771Z,10.6
2019-04-27T05:57:05.776Z,10.8
2019-04-27T06:12:20.270Z,11
2019-04-27T06:27:34.908Z,11.1
2019-04-27T06:42:43.070Z,11.4
2019-04-27T06:58:04.376Z,11.6
2019-04-27T07:13:19.562Z,11.9
2019-04-27T07:28:34.277Z,12.4
2019-04-27T07:43:37.118Z,12.9
2019-04-27T07:59:04.894Z,13.3
2019-04-27T08:14:21.174Z,13.7
2019-04-27T08:29:36.443Z,14
2019-04-27T08:44:52.221Z,14.4
2019-04-27T09:00:04.204Z,14.8
2019-04-27T09:15:24.479Z,15.5
2019-04-27T09:30:41.308Z,17.1
2019-04-27T09:45:58.136Z,16.6
2019-04-27T10:01:03.710Z,16.2
2019-04-27T10:16:31.614Z,16.5
2019-04-27T10:31:48.501Z,16.8
2019-04-27T10:47:05.966Z,16.8
2019-04-27T11:02:22.590Z,17.3
2019-04-27T11:17:37.031Z,16.4
2019-04-27T11:32:58.824Z,15.7
2019-04-27T11:48:12.604Z,16.2
2019-04-27T12:03:29.667Z,17.6
2019-04-27T12:18:36.451Z,19.3
2019-04-27T12:34:06.589Z,20.3
2019-04-27T12:49:26.243Z,20.1
2019-04-27T13:04:46.640Z,20.5
2019-04-27T13:20:06.712Z,21.2
2019-04-27T13:35:15.638Z,21.1
2019-04-27T13:50:45.755Z,20.5
2019-04-27T14:06:05.345Z,19.1
2019-04-27T14:21:23.002Z,19.2
2019-04-27T14:36:40.757Z,19.3
2019-04-27T14:51:49.065Z,18.9
2019-04-27T15:07:16.247Z,18.5
2019-04-27T15:22:33.853Z,18.5
2019-04-27T15:37:51.433Z,18.3
2019-04-27T15:53:12.286Z,18.5
2019-04-27T16:08:22.290Z,19
2019-04-27T16:23:48.041Z,18.8
2019-04-27T16:39:08.054Z,18.7
2019-04-27T16:54:24.087Z,18.4
2019-04-27T17:09:46.105Z,18.2
2019-04-27T17:24:54.799Z,17.7
2019-04-27T17:40:17.121Z,17.2
2019-04-27T17:55:34.012Z,16.5
2019-04-27T18:10:53.555Z,15.9
2019-04-27T18:26:06.743Z,14.3
2019-04-27T18:41:22.306Z,13.1
2019-04-27T18:56:38.329Z,12.6
2019-04-27T19:11:55.860Z,12.3
2019-04-27T19:27:16.057Z,12.3
2019-04-27T19:42:22.774Z,12.1
2019-04-27T19:57:39.252Z,11.9
2019-04-27T20:12:52.610Z,11.7
2019-04-27T20:28:07.556Z,11.8
2019-04-27T20:43:10.588Z,12.1
2019-04-27T20:58:37.346Z,11.8
2019-04-27T21:13:53.556Z,11.8
2019-04-27T21:29:06.900Z,11.7
2019-04-27T21:44:21.900Z,11.7
2019-04-27T21:59:33.114Z,11.7
2019-04-27T22:14:52.916Z,11.4
2019-04-27T22:30:06.382Z,11.8
2019-04-27T22:45:21.141Z,11.8
2019-04-27T23:00:25.821Z,11
2019-04-27T23:15:51.238Z,10.4
2019-04-27T23:31:03.970Z,10
2019-04-27T23:46:18.072Z,9.7
